Jacksonville, Georgia
Current Conditions -  °F | °C
As of 5:55 PM on Saturday 25 Oct 2014 (Local Time) from KFZG Reporting Station
Clear Clear  
Wind Chill: 77°   Ceiling: Unl
Heat Index: 77°   Visibility: 10mi
Dew Point: 36°   Wind: 5mph
Humidity: 22%   Direction: 360°N
Pressure: 30"   Gusts: NA
Location:  31.81°N, 82.98°W
Report Text: KFZG 252155Z AUTO 36004KT 10SM CLR 25/02 A3000 RMK AO2 T02500020
Loading
Personal Weather Stations






























Interactive Weather Map New forecast layout! Learn more

10-Day Weather Forecast

Advertisements
Track Severe Weather on mobile